sensor_id;sensor_type;location;lat;lon;timestamp;P1;durP1;ratioP1;P2;durP2;ratioP2
43325;SDS011;28920;59.862;30.636;2022-08-19T00:02:16;27.87;;;21.33;;
43325;SDS011;28920;59.862;30.636;2022-08-19T00:04:44;27.60;;;20.23;;
43325;SDS011;28920;59.862;30.636;2022-08-19T00:07:14;27.27;;;19.37;;
43325;SDS011;28920;59.862;30.636;2022-08-19T00:09:42;23.58;;;21.02;;
43325;SDS011;28920;59.862;30.636;2022-08-19T00:12:10;29.83;;;19.62;;
43325;SDS011;28920;59.862;30.636;2022-08-19T00:14:39;24.52;;;19.92;;
43325;SDS011;28920;59.862;30.636;2022-08-19T00:17:07;25.52;;;19.60;;
43325;SDS011;28920;59.862;30.636;2022-08-19T00:19:36;27.62;;;20.35;;
43325;SDS011;28920;59.862;30.636;2022-08-19T00:22:04;26.33;;;19.55;;
43325;SDS011;28920;59.862;30.636;2022-08-19T00:24:34;25.92;;;19.42;;
43325;SDS011;28920;59.862;30.636;2022-08-19T00:27:05;25.25;;;19.30;;
43325;SDS011;28920;59.862;30.636;2022-08-19T00:29:32;27.05;;;19.15;;
43325;SDS011;28920;59.862;30.636;2022-08-19T00:32:02;21.92;;;17.30;;
43325;SDS011;28920;59.862;30.636;2022-08-19T00:34:30;23.70;;;18.02;;
43325;SDS011;28920;59.862;30.636;2022-08-19T00:36:58;24.12;;;19.35;;
43325;SDS011;28920;59.862;30.636;2022-08-19T00:39:26;24.10;;;19.25;;
43325;SDS011;28920;59.862;30.636;2022-08-19T00:41:54;22.25;;;17.65;;
43325;SDS011;28920;59.862;30.636;2022-08-19T00:47:57;21.90;;;18.25;;
43325;SDS011;28920;59.862;30.636;2022-08-19T00:50:30;20.42;;;18.27;;
43325;SDS011;28920;59.862;30.636;2022-08-19T00:52:59;20.77;;;18.58;;
43325;SDS011;28920;59.862;30.636;2022-08-19T00:55:30;24.05;;;17.35;;
43325;SDS011;28920;59.862;30.636;2022-08-19T00:58:01;23.33;;;18.10;;
43325;SDS011;28920;59.862;30.636;2022-08-19T01:00:34;22.65;;;17.27;;
43325;SDS011;28920;59.862;30.636;2022-08-19T01:03:06;22.83;;;17.27;;
43325;SDS011;28920;59.862;30.636;2022-08-19T01:05:35;22.52;;;18.52;;
43325;SDS011;28920;59.862;30.636;2022-08-19T01:08:06;21.73;;;19.42;;
43325;SDS011;28920;59.862;30.636;2022-08-19T01:10:36;24.58;;;17.98;;
43325;SDS011;28920;59.862;30.636;2022-08-19T01:13:08;22.55;;;18.15;;
43325;SDS011;28920;59.862;30.636;2022-08-19T01:15:40;23.92;;;18.20;;
43325;SDS011;28920;59.862;30.636;2022-08-19T01:18:15;22.98;;;18.67;;
43325;SDS011;28920;59.862;30.636;2022-08-19T01:20:45;34.67;;;18.52;;
43325;SDS011;28920;59.862;30.636;2022-08-19T01:23:15;18.95;;;16.95;;
43325;SDS011;28920;59.862;30.636;2022-08-19T01:25:45;21.40;;;18.52;;
43325;SDS011;28920;59.862;30.636;2022-08-19T01:28:17;25.10;;;18.40;;
43325;SDS011;28920;59.862;30.636;2022-08-19T01:30:46;21.37;;;18.33;;
43325;SDS011;28920;59.862;30.636;2022-08-19T01:33:14;22.87;;;17.02;;
43325;SDS011;28920;59.862;30.636;2022-08-19T01:35:43;19.87;;;16.05;;
43325;SDS011;28920;59.862;30.636;2022-08-19T01:38:21;34.60;;;18.27;;
43325;SDS011;28920;59.862;30.636;2022-08-19T01:40:52;28.42;;;16.27;;
43325;SDS011;28920;59.862;30.636;2022-08-19T01:43:20;21.42;;;16.30;;
43325;SDS011;28920;59.862;30.636;2022-08-19T01:45:47;20.60;;;16.33;;
43325;SDS011;28920;59.862;30.636;2022-08-19T01:48:17;20.10;;;15.95;;
43325;SDS011;28920;59.862;30.636;2022-08-19T01:50:44;17.60;;;15.80;;
43325;SDS011;28920;59.862;30.636;2022-08-19T01:53:17;22.30;;;15.93;;
43325;SDS011;28920;59.862;30.636;2022-08-19T01:55:46;23.08;;;17.02;;
43325;SDS011;28920;59.862;30.636;2022-08-19T01:58:14;19.90;;;17.02;;
43325;SDS011;28920;59.862;30.636;2022-08-19T02:00:46;19.20;;;14.80;;
43325;SDS011;28920;59.862;30.636;2022-08-19T02:03:15;20.65;;;15.05;;
43325;SDS011;28920;59.862;30.636;2022-08-19T02:05:44;17.73;;;15.30;;
43325;SDS011;28920;59.862;30.636;2022-08-19T02:08:12;17.12;;;15.40;;
43325;SDS011;28920;59.862;30.636;2022-08-19T02:10:41;15.02;;;13.43;;
43325;SDS011;28920;59.862;30.636;2022-08-19T02:13:12;15.67;;;13.90;;
43325;SDS011;28920;59.862;30.636;2022-08-19T02:15:41;18.77;;;13.43;;
43325;SDS011;28920;59.862;30.636;2022-08-19T02:18:09;16.90;;;14.05;;
43325;SDS011;28920;59.862;30.636;2022-08-19T02:20:37;16.20;;;13.85;;
43325;SDS011;28920;59.862;30.636;2022-08-19T02:23:07;19.20;;;14.65;;
43325;SDS011;28920;59.862;30.636;2022-08-19T02:25:35;19.60;;;14.25;;
43325;SDS011;28920;59.862;30.636;2022-08-19T02:28:04;20.27;;;15.43;;
43325;SDS011;28920;59.862;30.636;2022-08-19T02:30:34;17.27;;;14.48;;
43325;SDS011;28920;59.862;30.636;2022-08-19T02:33:02;20.42;;;14.65;;
43325;SDS011;28920;59.862;30.636;2022-08-19T02:35:30;22.45;;;15.60;;
43325;SDS011;28920;59.862;30.636;2022-08-19T02:37:59;20.30;;;14.75;;
43325;SDS011;28920;59.862;30.636;2022-08-19T02:40:47;18.85;;;14.35;;
43325;SDS011;28920;59.862;30.636;2022-08-19T02:43:18;17.23;;;15.40;;
43325;SDS011;28920;59.862;30.636;2022-08-19T02:45:48;19.23;;;14.93;;
43325;SDS011;28920;59.862;30.636;2022-08-19T02:48:17;19.37;;;15.50;;
43325;SDS011;28920;59.862;30.636;2022-08-19T02:50:47;17.17;;;14.43;;
43325;SDS011;28920;59.862;30.636;2022-08-19T02:53:21;20.80;;;14.38;;
43325;SDS011;28920;59.862;30.636;2022-08-19T02:55:50;19.85;;;13.85;;
43325;SDS011;28920;59.862;30.636;2022-08-19T02:58:19;15.93;;;13.98;;
43325;SDS011;28920;59.862;30.636;2022-08-19T03:00:51;18.35;;;14.87;;
43325;SDS011;28920;59.862;30.636;2022-08-19T03:03:21;18.67;;;15.27;;
43325;SDS011;28920;59.862;30.636;2022-08-19T03:05:49;18.90;;;15.07;;
43325;SDS011;28920;59.862;30.636;2022-08-19T03:08:17;19.95;;;16.52;;
43325;SDS011;28920;59.862;30.636;2022-08-19T03:10:45;21.87;;;15.93;;
43325;SDS011;28920;59.862;30.636;2022-08-19T03:13:17;17.25;;;13.35;;
43325;SDS011;28920;59.862;30.636;2022-08-19T03:15:45;15.98;;;14.27;;
43325;SDS011;28920;59.862;30.636;2022-08-19T03:18:16;15.75;;;14.05;;
43325;SDS011;28920;59.862;30.636;2022-08-19T03:20:44;15.07;;;12.85;;
43325;SDS011;28920;59.862;30.636;2022-08-19T03:23:15;18.77;;;15.07;;
43325;SDS011;28920;59.862;30.636;2022-08-19T03:25:44;18.62;;;16.02;;
43325;SDS011;28920;59.862;30.636;2022-08-19T03:28:14;19.02;;;16.08;;
43325;SDS011;28920;59.862;30.636;2022-08-19T03:30:54;20.77;;;16.33;;
43325;SDS011;28920;59.862;30.636;2022-08-19T03:33:25;22.67;;;15.52;;
43325;SDS011;28920;59.862;30.636;2022-08-19T03:36:01;20.77;;;16.30;;
43325;SDS011;28920;59.862;30.636;2022-08-19T03:38:31;19.37;;;16.20;;
43325;SDS011;28920;59.862;30.636;2022-08-19T03:41:02;17.37;;;15.57;;
43325;SDS011;28920;59.862;30.636;2022-08-19T03:43:32;17.08;;;14.73;;
43325;SDS011;28920;59.862;30.636;2022-08-19T03:46:02;16.55;;;14.27;;
43325;SDS011;28920;59.862;30.636;2022-08-19T03:48:32;17.17;;;15.32;;
43325;SDS011;28920;59.862;30.636;2022-08-19T03:51:02;21.00;;;14.63;;
43325;SDS011;28920;59.862;30.636;2022-08-19T03:53:30;17.52;;;14.18;;
43325;SDS011;28920;59.862;30.636;2022-08-19T03:55:59;16.52;;;13.95;;
43325;SDS011;28920;59.862;30.636;2022-08-19T03:58:28;16.40;;;13.95;;
43325;SDS011;28920;59.862;30.636;2022-08-19T04:00:56;20.48;;;13.77;;
43325;SDS011;28920;59.862;30.636;2022-08-19T04:03:25;15.75;;;13.35;;
43325;SDS011;28920;59.862;30.636;2022-08-19T04:05:54;17.73;;;13.05;;
43325;SDS011;28920;59.862;30.636;2022-08-19T04:08:22;16.33;;;13.00;;
43325;SDS011;28920;59.862;30.636;2022-08-19T04:10:50;15.52;;;13.10;;
43325;SDS011;28920;59.862;30.636;2022-08-19T04:13:19;17.48;;;12.80;;
43325;SDS011;28920;59.862;30.636;2022-08-19T04:15:47;17.15;;;12.10;;
43325;SDS011;28920;59.862;30.636;2022-08-19T04:18:15;16.60;;;13.10;;
43325;SDS011;28920;59.862;30.636;2022-08-19T04:20:44;15.60;;;14.05;;
43325;SDS011;28920;59.862;30.636;2022-08-19T04:23:15;14.63;;;13.05;;
43325;SDS011;28920;59.862;30.636;2022-08-19T04:25:43;14.93;;;13.32;;
43325;SDS011;28920;59.862;30.636;2022-08-19T04:28:12;16.17;;;12.20;;
43325;SDS011;28920;59.862;30.636;2022-08-19T04:30:40;24.33;;;14.15;;
43325;SDS011;28920;59.862;30.636;2022-08-19T04:33:10;18.58;;;12.80;;
43325;SDS011;28920;59.862;30.636;2022-08-19T04:35:39;19.67;;;12.37;;
43325;SDS011;28920;59.862;30.636;2022-08-19T04:38:09;16.30;;;11.73;;
43325;SDS011;28920;59.862;30.636;2022-08-19T04:40:41;16.70;;;12.88;;
43325;SDS011;28920;59.862;30.636;2022-08-19T04:43:28;18.62;;;12.85;;
43325;SDS011;28920;59.862;30.636;2022-08-19T04:45:56;17.42;;;12.25;;
43325;SDS011;28920;59.862;30.636;2022-08-19T04:48:25;24.63;;;12.80;;
43325;SDS011;28920;59.862;30.636;2022-08-19T04:50:53;17.15;;;13.50;;
43325;SDS011;28920;59.862;30.636;2022-08-19T04:53:24;18.90;;;11.82;;
43325;SDS011;28920;59.862;30.636;2022-08-19T04:55:56;16.62;;;12.63;;
43325;SDS011;28920;59.862;30.636;2022-08-19T04:58:25;19.77;;;12.70;;
43325;SDS011;28920;59.862;30.636;2022-08-19T05:00:54;17.20;;;13.02;;
43325;SDS011;28920;59.862;30.636;2022-08-19T05:03:24;15.50;;;13.90;;
43325;SDS011;28920;59.862;30.636;2022-08-19T05:05:51;23.27;;;14.60;;
43325;SDS011;28920;59.862;30.636;2022-08-19T05:08:20;15.77;;;12.98;;
43325;SDS011;28920;59.862;30.636;2022-08-19T05:10:49;20.25;;;13.40;;
43325;SDS011;28920;59.862;30.636;2022-08-19T05:13:19;19.40;;;12.77;;
43325;SDS011;28920;59.862;30.636;2022-08-19T05:15:53;14.40;;;12.15;;
43325;SDS011;28920;59.862;30.636;2022-08-19T05:18:21;19.90;;;14.13;;
43325;SDS011;28920;59.862;30.636;2022-08-19T05:21:07;16.25;;;12.50;;
43325;SDS011;28920;59.862;30.636;2022-08-19T05:23:56;20.05;;;12.70;;
43325;SDS011;28920;59.862;30.636;2022-08-19T05:26:24;17.17;;;11.73;;
43325;SDS011;28920;59.862;30.636;2022-08-19T05:28:56;14.30;;;12.68;;
43325;SDS011;28920;59.862;30.636;2022-08-19T05:31:24;18.00;;;12.10;;
43325;SDS011;28920;59.862;30.636;2022-08-19T05:33:52;20.20;;;12.32;;
43325;SDS011;28920;59.862;30.636;2022-08-19T05:36:19;20.90;;;13.07;;
43325;SDS011;28920;59.862;30.636;2022-08-19T05:38:47;19.58;;;12.95;;
43325;SDS011;28920;59.862;30.636;2022-08-19T05:41:15;16.77;;;12.75;;
43325;SDS011;28920;59.862;30.636;2022-08-19T05:43:43;14.95;;;11.48;;
43325;SDS011;28920;59.862;30.636;2022-08-19T05:46:18;18.58;;;12.88;;
43325;SDS011;28920;59.862;30.636;2022-08-19T05:48:47;17.83;;;11.57;;
43325;SDS011;28920;59.862;30.636;2022-08-19T05:51:15;15.65;;;11.80;;
43325;SDS011;28920;59.862;30.636;2022-08-19T05:53:44;19.92;;;12.82;;
43325;SDS011;28920;59.862;30.636;2022-08-19T05:56:13;16.23;;;11.07;;
43325;SDS011;28920;59.862;30.636;2022-08-19T05:58:44;19.08;;;11.93;;
43325;SDS011;28920;59.862;30.636;2022-08-19T06:01:13;14.70;;;11.12;;
43325;SDS011;28920;59.862;30.636;2022-08-19T06:06:14;15.80;;;11.27;;
43325;SDS011;28920;59.862;30.636;2022-08-19T06:08:42;13.68;;;10.77;;
43325;SDS011;28920;59.862;30.636;2022-08-19T06:11:12;14.38;;;10.55;;
43325;SDS011;28920;59.862;30.636;2022-08-19T06:13:42;14.20;;;10.95;;
43325;SDS011;28920;59.862;30.636;2022-08-19T06:16:10;13.02;;;11.25;;
43325;SDS011;28920;59.862;30.636;2022-08-19T06:18:39;14.85;;;10.60;;
43325;SDS011;28920;59.862;30.636;2022-08-19T06:21:08;14.13;;;11.23;;
43325;SDS011;28920;59.862;30.636;2022-08-19T06:23:35;12.18;;;10.85;;
43325;SDS011;28920;59.862;30.636;2022-08-19T06:26:04;16.25;;;10.40;;
43325;SDS011;28920;59.862;30.636;2022-08-19T06:28:31;12.77;;;9.50;;
43325;SDS011;28920;59.862;30.636;2022-08-19T06:31:05;14.05;;;11.12;;
43325;SDS011;28920;59.862;30.636;2022-08-19T06:33:34;11.52;;;9.88;;
43325;SDS011;28920;59.862;30.636;2022-08-19T06:36:01;12.52;;;9.98;;
43325;SDS011;28920;59.862;30.636;2022-08-19T06:38:32;15.27;;;11.02;;
43325;SDS011;28920;59.862;30.636;2022-08-19T06:41:01;13.80;;;10.75;;
43325;SDS011;28920;59.862;30.636;2022-08-19T06:43:29;12.48;;;10.52;;
43325;SDS011;28920;59.862;30.636;2022-08-19T06:45:57;14.38;;;10.10;;
43325;SDS011;28920;59.862;30.636;2022-08-19T06:48:25;12.98;;;9.60;;
43325;SDS011;28920;59.862;30.636;2022-08-19T06:50:53;16.05;;;10.18;;
43325;SDS011;28920;59.862;30.636;2022-08-19T06:53:21;18.83;;;9.48;;
43325;SDS011;28920;59.862;30.636;2022-08-19T06:55:51;15.30;;;9.50;;
43325;SDS011;28920;59.862;30.636;2022-08-19T06:58:25;12.93;;;10.07;;
43325;SDS011;28920;59.862;30.636;2022-08-19T07:00:54;12.45;;;10.40;;
43325;SDS011;28920;59.862;30.636;2022-08-19T07:03:23;11.70;;;9.40;;
43325;SDS011;28920;59.862;30.636;2022-08-19T07:05:51;14.90;;;9.63;;
43325;SDS011;28920;59.862;30.636;2022-08-19T07:08:19;10.98;;;9.82;;
43325;SDS011;28920;59.862;30.636;2022-08-19T07:10:46;14.02;;;10.00;;
43325;SDS011;28920;59.862;30.636;2022-08-19T07:13:16;15.23;;;9.65;;
43325;SDS011;28920;59.862;30.636;2022-08-19T07:15:45;14.95;;;10.68;;
43325;SDS011;28920;59.862;30.636;2022-08-19T07:18:13;18.00;;;9.10;;
43325;SDS011;28920;59.862;30.636;2022-08-19T07:20:41;22.17;;;10.40;;
43325;SDS011;28920;59.862;30.636;2022-08-19T07:23:09;13.70;;;9.98;;
43325;SDS011;28920;59.862;30.636;2022-08-19T07:25:37;16.80;;;9.13;;
43325;SDS011;28920;59.862;30.636;2022-08-19T07:28:06;11.68;;;9.13;;
43325;SDS011;28920;59.862;30.636;2022-08-19T07:30:38;15.80;;;10.27;;
43325;SDS011;28920;59.862;30.636;2022-08-19T07:33:06;12.13;;;8.70;;
43325;SDS011;28920;59.862;30.636;2022-08-19T07:35:34;12.05;;;9.68;;
43325;SDS011;28920;59.862;30.636;2022-08-19T07:38:02;12.37;;;9.82;;
43325;SDS011;28920;59.862;30.636;2022-08-19T07:40:30;12.07;;;9.40;;
43325;SDS011;28920;59.862;30.636;2022-08-19T07:42:58;21.00;;;9.98;;
43325;SDS011;28920;59.862;30.636;2022-08-19T07:45:26;14.85;;;9.73;;
43325;SDS011;28920;59.862;30.636;2022-08-19T07:47:55;14.95;;;9.90;;
43325;SDS011;28920;59.862;30.636;2022-08-19T07:50:24;17.30;;;9.77;;
43325;SDS011;28920;59.862;30.636;2022-08-19T07:52:53;12.60;;;9.65;;
43325;SDS011;28920;59.862;30.636;2022-08-19T07:55:21;11.88;;;9.25;;
43325;SDS011;28920;59.862;30.636;2022-08-19T07:57:51;13.85;;;10.00;;
43325;SDS011;28920;59.862;30.636;2022-08-19T08:00:19;10.98;;;9.80;;
43325;SDS011;28920;59.862;30.636;2022-08-19T08:02:48;11.98;;;8.82;;
43325;SDS011;28920;59.862;30.636;2022-08-19T08:05:17;16.55;;;9.57;;
43325;SDS011;28920;59.862;30.636;2022-08-19T08:08:02;16.12;;;9.50;;
43325;SDS011;28920;59.862;30.636;2022-08-19T08:11:03;17.23;;;9.73;;
43325;SDS011;28920;59.862;30.636;2022-08-19T08:13:31;10.80;;;8.80;;
43325;SDS011;28920;59.862;30.636;2022-08-19T08:16:01;14.90;;;9.30;;
43325;SDS011;28920;59.862;30.636;2022-08-19T08:34:02;13.27;;;8.90;;
43325;SDS011;28920;59.862;30.636;2022-08-19T08:36:30;13.62;;;8.30;;
43325;SDS011;28920;59.862;30.636;2022-08-19T08:38:59;15.52;;;8.35;;
43325;SDS011;28920;59.862;30.636;2022-08-19T08:41:37;12.52;;;8.15;;
43325;SDS011;28920;59.862;30.636;2022-08-19T08:44:13;14.95;;;9.55;;
43325;SDS011;28920;59.862;30.636;2022-08-19T08:46:45;12.45;;;8.93;;
43325;SDS011;28920;59.862;30.636;2022-08-19T08:49:20;10.05;;;8.40;;
43325;SDS011;28920;59.862;30.636;2022-08-19T08:52:00;13.40;;;7.25;;
43325;SDS011;28920;59.862;30.636;2022-08-19T08:54:33;10.63;;;7.68;;
43325;SDS011;28920;59.862;30.636;2022-08-19T08:57:07;13.88;;;8.30;;
43325;SDS011;28920;59.862;30.636;2022-08-19T08:59:40;13.88;;;7.40;;
43325;SDS011;28920;59.862;30.636;2022-08-19T09:02:10;8.73;;;7.03;;
43325;SDS011;28920;59.862;30.636;2022-08-19T09:04:39;8.20;;;6.80;;
43325;SDS011;28920;59.862;30.636;2022-08-19T09:07:14;12.93;;;6.30;;
43325;SDS011;28920;59.862;30.636;2022-08-19T09:09:55;11.45;;;7.12;;
43325;SDS011;28920;59.862;30.636;2022-08-19T09:12:33;12.75;;;6.90;;
43325;SDS011;28920;59.862;30.636;2022-08-19T09:15:05;9.50;;;6.25;;
43325;SDS011;28920;59.862;30.636;2022-08-19T09:17:36;9.57;;;6.25;;
43325;SDS011;28920;59.862;30.636;2022-08-19T09:20:18;13.30;;;6.95;;
43325;SDS011;28920;59.862;30.636;2022-08-19T09:22:48;10.55;;;6.07;;
43325;SDS011;28920;59.862;30.636;2022-08-19T09:25:20;8.52;;;5.75;;
43325;SDS011;28920;59.862;30.636;2022-08-19T09:27:50;8.82;;;6.07;;
43325;SDS011;28920;59.862;30.636;2022-08-19T09:30:20;9.95;;;6.32;;
43325;SDS011;28920;59.862;30.636;2022-08-19T09:32:50;9.60;;;5.80;;
43325;SDS011;28920;59.862;30.636;2022-08-19T09:35:21;9.07;;;6.00;;
43325;SDS011;28920;59.862;30.636;2022-08-19T09:37:51;6.43;;;5.40;;
43325;SDS011;28920;59.862;30.636;2022-08-19T09:40:19;7.75;;;5.70;;
43325;SDS011;28920;59.862;30.636;2022-08-19T09:42:47;11.95;;;5.65;;
43325;SDS011;28920;59.862;30.636;2022-08-19T09:45:15;8.55;;;5.35;;
43325;SDS011;28920;59.862;30.636;2022-08-19T09:47:47;7.47;;;5.15;;
43325;SDS011;28920;59.862;30.636;2022-08-19T09:50:15;10.75;;;5.22;;
43325;SDS011;28920;59.862;30.636;2022-08-19T09:52:45;9.63;;;5.10;;
43325;SDS011;28920;59.862;30.636;2022-08-19T09:55:13;14.38;;;5.95;;
43325;SDS011;28920;59.862;30.636;2022-08-19T09:57:42;7.72;;;5.80;;
43325;SDS011;28920;59.862;30.636;2022-08-19T10:00:10;9.35;;;4.93;;
43325;SDS011;28920;59.862;30.636;2022-08-19T10:02:39;10.00;;;5.20;;
43325;SDS011;28920;59.862;30.636;2022-08-19T10:05:07;9.38;;;4.97;;
43325;SDS011;28920;59.862;30.636;2022-08-19T10:07:54;8.38;;;5.32;;
43325;SDS011;28920;59.862;30.636;2022-08-19T10:10:22;11.95;;;5.07;;
43325;SDS011;28920;59.862;30.636;2022-08-19T10:12:50;11.27;;;5.30;;
43325;SDS011;28920;59.862;30.636;2022-08-19T10:15:19;9.00;;;5.22;;
43325;SDS011;28920;59.862;30.636;2022-08-19T10:17:47;10.68;;;5.87;;
43325;SDS011;28920;59.862;30.636;2022-08-19T10:20:15;12.77;;;6.35;;
43325;SDS011;28920;59.862;30.636;2022-08-19T10:22:43;8.55;;;5.85;;
43325;SDS011;28920;59.862;30.636;2022-08-19T10:25:12;9.73;;;6.20;;
43325;SDS011;28920;59.862;30.636;2022-08-19T10:27:40;5.78;;;5.10;;
43325;SDS011;28920;59.862;30.636;2022-08-19T10:30:08;10.43;;;6.35;;
43325;SDS011;28920;59.862;30.636;2022-08-19T10:32:38;12.15;;;5.50;;
43325;SDS011;28920;59.862;30.636;2022-08-19T10:35:06;7.80;;;6.50;;
43325;SDS011;28920;59.862;30.636;2022-08-19T10:37:35;8.20;;;5.30;;
43325;SDS011;28920;59.862;30.636;2022-08-19T10:40:04;5.97;;;4.77;;
43325;SDS011;28920;59.862;30.636;2022-08-19T10:42:36;10.10;;;5.25;;
43325;SDS011;28920;59.862;30.636;2022-08-19T10:45:04;7.62;;;5.55;;
43325;SDS011;28920;59.862;30.636;2022-08-19T10:47:35;7.03;;;5.40;;
43325;SDS011;28920;59.862;30.636;2022-08-19T10:50:04;8.35;;;5.40;;
43325;SDS011;28920;59.862;30.636;2022-08-19T10:52:50;9.63;;;5.60;;
43325;SDS011;28920;59.862;30.636;2022-08-19T10:55:19;9.13;;;6.15;;
43325;SDS011;28920;59.862;30.636;2022-08-19T10:58:11;14.93;;;8.95;;
43325;SDS011;28920;59.862;30.636;2022-08-19T11:00:39;13.77;;;5.95;;
43325;SDS011;28920;59.862;30.636;2022-08-19T11:03:08;11.57;;;5.25;;
43325;SDS011;28920;59.862;30.636;2022-08-19T11:05:37;8.02;;;6.03;;
43325;SDS011;28920;59.862;30.636;2022-08-19T11:08:05;8.27;;;5.72;;
43325;SDS011;28920;59.862;30.636;2022-08-19T11:10:40;8.55;;;5.47;;
43325;SDS011;28920;59.862;30.636;2022-08-19T11:13:08;11.20;;;6.30;;
43325;SDS011;28920;59.862;30.636;2022-08-19T11:15:37;9.68;;;5.82;;
43325;SDS011;28920;59.862;30.636;2022-08-19T11:18:06;5.13;;;4.63;;
43325;SDS011;28920;59.862;30.636;2022-08-19T11:20:34;13.20;;;5.93;;
43325;SDS011;28920;59.862;30.636;2022-08-19T11:23:02;6.55;;;5.28;;
43325;SDS011;28920;59.862;30.636;2022-08-19T11:25:30;8.60;;;5.47;;
43325;SDS011;28920;59.862;30.636;2022-08-19T11:27:59;8.23;;;5.53;;
43325;SDS011;28920;59.862;30.636;2022-08-19T11:30:26;8.18;;;5.20;;
43325;SDS011;28920;59.862;30.636;2022-08-19T11:32:56;9.23;;;5.43;;
43325;SDS011;28920;59.862;30.636;2022-08-19T11:35:26;9.65;;;5.12;;
43325;SDS011;28920;59.862;30.636;2022-08-19T11:37:54;14.00;;;5.82;;
43325;SDS011;28920;59.862;30.636;2022-08-19T11:40:26;12.05;;;6.53;;
43325;SDS011;28920;59.862;30.636;2022-08-19T11:42:53;9.43;;;6.18;;
43325;SDS011;28920;59.862;30.636;2022-08-19T11:45:25;10.48;;;6.62;;
43325;SDS011;28920;59.862;30.636;2022-08-19T11:47:55;8.38;;;4.97;;
43325;SDS011;28920;59.862;30.636;2022-08-19T11:50:23;9.77;;;7.57;;
43325;SDS011;28920;59.862;30.636;2022-08-19T11:52:53;12.80;;;5.75;;
43325;SDS011;28920;59.862;30.636;2022-08-19T11:55:21;11.88;;;5.97;;
43325;SDS011;28920;59.862;30.636;2022-08-19T11:57:50;7.07;;;5.12;;
43325;SDS011;28920;59.862;30.636;2022-08-19T12:00:18;6.97;;;5.37;;
43325;SDS011;28920;59.862;30.636;2022-08-19T12:02:46;11.80;;;6.10;;
43325;SDS011;28920;59.862;30.636;2022-08-19T12:05:15;8.13;;;4.68;;
43325;SDS011;28920;59.862;30.636;2022-08-19T12:07:43;11.57;;;4.90;;
43325;SDS011;28920;59.862;30.636;2022-08-19T12:10:12;11.65;;;6.10;;
43325;SDS011;28920;59.862;30.636;2022-08-19T12:12:40;9.57;;;5.65;;
43325;SDS011;28920;59.862;30.636;2022-08-19T12:15:12;9.32;;;6.00;;
43325;SDS011;28920;59.862;30.636;2022-08-19T12:17:40;9.18;;;5.95;;
43325;SDS011;28920;59.862;30.636;2022-08-19T12:20:09;9.23;;;5.28;;
43325;SDS011;28920;59.862;30.636;2022-08-19T12:22:40;9.32;;;5.50;;
43325;SDS011;28920;59.862;30.636;2022-08-19T12:25:09;8.32;;;5.68;;
43325;SDS011;28920;59.862;30.636;2022-08-19T12:27:38;12.00;;;7.03;;
43325;SDS011;28920;59.862;30.636;2022-08-19T12:30:07;10.18;;;6.10;;
43325;SDS011;28920;59.862;30.636;2022-08-19T12:32:38;6.78;;;5.95;;
43325;SDS011;28920;59.862;30.636;2022-08-19T12:35:07;7.07;;;5.33;;
43325;SDS011;28920;59.862;30.636;2022-08-19T12:37:36;13.65;;;6.72;;
43325;SDS011;28920;59.862;30.636;2022-08-19T12:40:06;8.00;;;6.37;;
43325;SDS011;28920;59.862;30.636;2022-08-19T12:42:35;14.05;;;6.18;;
43325;SDS011;28920;59.862;30.636;2022-08-19T12:45:03;8.55;;;5.62;;
43325;SDS011;28920;59.862;30.636;2022-08-19T12:47:31;8.30;;;5.68;;
43325;SDS011;28920;59.862;30.636;2022-08-19T12:50:00;14.70;;;6.20;;
43325;SDS011;28920;59.862;30.636;2022-08-19T12:52:28;9.50;;;6.20;;
43325;SDS011;28920;59.862;30.636;2022-08-19T12:54:56;7.50;;;5.55;;
43325;SDS011;28920;59.862;30.636;2022-08-19T12:57:27;9.38;;;6.87;;
43325;SDS011;28920;59.862;30.636;2022-08-19T12:59:57;8.15;;;6.18;;
43325;SDS011;28920;59.862;30.636;2022-08-19T13:02:25;6.80;;;6.10;;
43325;SDS011;28920;59.862;30.636;2022-08-19T13:04:53;10.32;;;6.32;;
43325;SDS011;28920;59.862;30.636;2022-08-19T13:07:20;10.68;;;5.55;;
43325;SDS011;28920;59.862;30.636;2022-08-19T13:09:50;11.20;;;6.72;;
43325;SDS011;28920;59.862;30.636;2022-08-19T13:12:18;16.15;;;6.85;;
43325;SDS011;28920;59.862;30.636;2022-08-19T13:14:48;11.18;;;6.82;;
43325;SDS011;28920;59.862;30.636;2022-08-19T13:17:18;11.82;;;6.12;;
43325;SDS011;28920;59.862;30.636;2022-08-19T13:19:46;11.20;;;5.72;;
43325;SDS011;28920;59.862;30.636;2022-08-19T13:22:14;9.43;;;6.28;;
43325;SDS011;28920;59.862;30.636;2022-08-19T13:24:42;12.73;;;6.28;;
43325;SDS011;28920;59.862;30.636;2022-08-19T13:27:10;10.73;;;6.20;;
43325;SDS011;28920;59.862;30.636;2022-08-19T13:29:39;8.45;;;5.97;;
43325;SDS011;28920;59.862;30.636;2022-08-19T13:32:26;11.88;;;7.07;;
43325;SDS011;28920;59.862;30.636;2022-08-19T13:35:14;8.00;;;6.03;;
43325;SDS011;28920;59.862;30.636;2022-08-19T13:37:42;10.20;;;6.43;;
43325;SDS011;28920;59.862;30.636;2022-08-19T13:40:12;15.10;;;7.03;;
43325;SDS011;28920;59.862;30.636;2022-08-19T13:42:45;12.15;;;7.72;;
43325;SDS011;28920;59.862;30.636;2022-08-19T13:45:14;7.80;;;5.87;;
43325;SDS011;28920;59.862;30.636;2022-08-19T13:47:46;7.70;;;6.43;;
43325;SDS011;28920;59.862;30.636;2022-08-19T13:50:15;14.00;;;6.65;;
43325;SDS011;28920;59.862;30.636;2022-08-19T13:52:44;12.32;;;7.25;;
43325;SDS011;28920;59.862;30.636;2022-08-19T13:55:13;12.98;;;7.30;;
43325;SDS011;28920;59.862;30.636;2022-08-19T13:57:42;12.35;;;6.70;;
43325;SDS011;28920;59.862;30.636;2022-08-19T14:00:11;9.98;;;6.22;;
43325;SDS011;28920;59.862;30.636;2022-08-19T14:02:44;7.62;;;6.18;;
43325;SDS011;28920;59.862;30.636;2022-08-19T14:05:15;11.88;;;7.28;;
43325;SDS011;28920;59.862;30.636;2022-08-19T14:07:43;12.13;;;8.68;;
43325;SDS011;28920;59.862;30.636;2022-08-19T14:10:11;10.50;;;6.47;;
43325;SDS011;28920;59.862;30.636;2022-08-19T14:12:42;11.80;;;6.70;;
43325;SDS011;28920;59.862;30.636;2022-08-19T14:15:11;8.07;;;6.20;;
43325;SDS011;28920;59.862;30.636;2022-08-19T14:17:40;13.48;;;8.95;;
43325;SDS011;28920;59.862;30.636;2022-08-19T14:20:12;12.95;;;6.57;;
43325;SDS011;28920;59.862;30.636;2022-08-19T14:22:42;12.02;;;6.62;;
43325;SDS011;28920;59.862;30.636;2022-08-19T14:25:12;9.82;;;6.55;;
43325;SDS011;28920;59.862;30.636;2022-08-19T14:27:42;10.02;;;6.10;;
43325;SDS011;28920;59.862;30.636;2022-08-19T14:30:12;9.00;;;5.80;;
43325;SDS011;28920;59.862;30.636;2022-08-19T14:32:43;14.68;;;6.37;;
43325;SDS011;28920;59.862;30.636;2022-08-19T14:35:13;9.50;;;5.80;;
43325;SDS011;28920;59.862;30.636;2022-08-19T14:40:11;10.13;;;5.37;;
43325;SDS011;28920;59.862;30.636;2022-08-19T14:42:40;8.02;;;5.12;;
43325;SDS011;28920;59.862;30.636;2022-08-19T14:45:08;8.18;;;6.57;;
43325;SDS011;28920;59.862;30.636;2022-08-19T14:47:38;9.50;;;5.15;;
43325;SDS011;28920;59.862;30.636;2022-08-19T14:50:07;11.48;;;5.50;;
43325;SDS011;28920;59.862;30.636;2022-08-19T14:52:38;12.88;;;5.03;;
43325;SDS011;28920;59.862;30.636;2022-08-19T14:55:07;7.85;;;4.90;;
43325;SDS011;28920;59.862;30.636;2022-08-19T14:57:35;7.72;;;5.35;;
43325;SDS011;28920;59.862;30.636;2022-08-19T15:00:04;15.15;;;8.90;;